Main page
METAR-TAF:

METAR-TAF

Airports :

Hamburg Finkenwerder Airport

Finkenwerder, Germany

latitude: 53-32N, longitude: 009-50E, elevation: 5 m

Current weather observation

The report was made 37 minutes ago, at 10:50 UTC
Wind 9 kt from the West
Temperature 19°C
Humidity 68%
Pressure 1019 hPa
Visibility 10 km or more

METAR: EDHI 231050Z AUTO 27009KT 9999 // FEW031/// BKN046/// 19/13 Q1019

Time: 13:27 (11:27 UTC)

Forecast

The report was made 8 hours and 27 minutes ago, at 03:00 UTC
Forecast valid from 23 at 04 UTC to 23 at 12 UTC
Wind 5 kt from the West/Southwest
Visibility 10 km or more
no clouds below 1500 m and no cumulonimbus
Probability 30% :
Temporary
from 23 at 04 UTC to 23 at 05 UTC
Visibility: 4000 m
Broken clouds at a height of 1200 ft
mist
Becoming
from 23 at 06 UTC to 23 at 09 UTC
Wind 10 kt from the West

TAF: EDHI 230300Z 2304/2312 25005KT CAVOK PROB30 TEMPO 2304/2305 4000 BR BKN012 BECMG 2306/2309 28010KT

Weather observations and forecasts of more than 4000 airports (METAR and TAF reports).

The available stations are represented by yellow and red dots on the map.

Hover mouse over dot to see the name of the station.

Then click to see weather observations and forecasts.

To change the map : click on the green buttons with a black cross to zoom in, on the green button with a dash to zoom out, or on the green arrows for adjacent maps.


METAR-TAF: